createdAt,value
2023-01-22T00:01:13.895Z,10.48
2023-01-22T00:02:45.553Z,10.58
2023-01-22T00:04:16.942Z,13.23
2023-01-22T00:05:48.227Z,15.23
2023-01-22T00:07:19.511Z,19.06
2023-01-22T00:08:51.003Z,13.74
2023-01-22T00:10:22.329Z,10.01
2023-01-22T00:11:53.996Z,17.05
2023-01-22T00:13:25.151Z,17.17
2023-01-22T00:14:56.336Z,13.34
2023-01-22T00:16:27.952Z,13.83
2023-01-22T00:17:59.433Z,11.66
2023-01-22T00:19:30.600Z,12.72
2023-01-22T00:21:01.891Z,11.91
2023-01-22T00:22:33.186Z,13.07
2023-01-22T00:24:04.379Z,8.30
2023-01-22T00:25:36.054Z,8.33
2023-01-22T00:27:07.423Z,9.74
2023-01-22T00:28:39.126Z,12.66
2023-01-22T00:30:10.411Z,14.49
2023-01-22T00:31:42.054Z,16.20
2023-01-22T00:33:13.444Z,15.91
2023-01-22T00:34:45.072Z,15.75
2023-01-22T00:36:16.528Z,14.85
2023-01-22T00:37:47.815Z,13.38
2023-01-22T00:39:18.989Z,15.24
2023-01-22T00:40:50.263Z,16.43
2023-01-22T00:42:21.865Z,14.57
2023-01-22T00:43:53.309Z,15.77
2023-01-22T00:45:24.587Z,13.18
2023-01-22T00:46:55.893Z,14.82
2023-01-22T00:48:27.177Z,14.16
2023-01-22T00:49:58.367Z,15.89
2023-01-22T00:51:29.512Z,14.61
2023-01-22T00:53:01.125Z,15.81
2023-01-22T00:54:32.791Z,13.86
2023-01-22T00:56:04.402Z,15.75
2023-01-22T00:57:35.756Z,15.85
2023-01-22T00:59:07.621Z,16.31
2023-01-22T01:00:39.448Z,15.45
2023-01-22T01:02:10.725Z,15.76
2023-01-22T01:03:42.268Z,12.17
2023-01-22T01:05:13.629Z,11.89
2023-01-22T01:06:45.499Z,10.55
2023-01-22T01:08:16.898Z,12.96
2023-01-22T01:09:48.286Z,13.89
2023-01-22T01:11:19.545Z,8.34
2023-01-22T01:12:51.053Z,10.92
2023-01-22T01:14:22.433Z,15.37
2023-01-22T01:15:54.113Z,12.96
2023-01-22T01:17:25.270Z,12.12
2023-01-22T01:18:57.679Z,11.25
2023-01-22T01:20:29.031Z,14.09
2023-01-22T01:22:00.538Z,13.34
2023-01-22T01:23:32.089Z,10.07
2023-01-22T01:25:03.836Z,8.74
2023-01-22T01:26:35.359Z,8.93
2023-01-22T01:28:06.978Z,10.39
2023-01-22T01:29:38.567Z,15.42
2023-01-22T01:31:10.352Z,9.83
2023-01-22T01:32:41.643Z,8.24
2023-01-22T01:34:12.954Z,11.50
2023-01-22T01:35:44.269Z,13.07
2023-01-22T01:37:15.424Z,15.04
2023-01-22T01:38:46.916Z,16.15
2023-01-22T01:40:18.531Z,11.98
2023-01-22T01:41:49.940Z,7.95
2023-01-22T01:43:21.143Z,10.27
2023-01-22T01:44:52.512Z,8.01
2023-01-22T01:46:23.757Z,8.95
2023-01-22T01:47:55.164Z,9.61
2023-01-22T01:49:26.826Z,7.94
2023-01-22T01:50:58.385Z,9.41
2023-01-22T01:52:29.644Z,5.99
2023-01-22T01:54:00.913Z,7.85
2023-01-22T01:55:32.165Z,9.93
2023-01-22T01:57:03.756Z,9.80
2023-01-22T01:58:35.033Z,11.80
2023-01-22T02:00:06.280Z,14.51
2023-01-22T02:01:38.092Z,14.37
2023-01-22T02:03:09.672Z,13.56
2023-01-22T02:04:41.246Z,14.97
2023-01-22T02:06:13.523Z,11.45
2023-01-22T02:07:44.813Z,14.87
2023-01-22T02:09:16.579Z,13.93
2023-01-22T02:10:47.843Z,10.78
2023-01-22T02:12:19.235Z,8.59
2023-01-22T02:13:51.486Z,10.34
2023-01-22T02:15:22.805Z,12.10
2023-01-22T02:16:54.145Z,10.60
2023-01-22T02:18:25.327Z,14.21
2023-01-22T02:19:56.577Z,10.71
2023-01-22T02:21:28.174Z,14.07
2023-01-22T02:22:59.637Z,14.82
2023-01-22T02:24:30.812Z,14.71
2023-01-22T02:26:02.069Z,8.13
2023-01-22T02:27:33.248Z,13.47
2023-01-22T02:29:04.528Z,14.67
2023-01-22T02:30:36.032Z,15.37
2023-01-22T02:32:07.569Z,13.38
2023-01-22T02:33:38.790Z,14.02
2023-01-22T02:35:10.040Z,15.22
2023-01-22T02:36:46.644Z,13.21
2023-01-22T02:38:17.924Z,13.71
2023-01-22T02:39:49.260Z,14.92
2023-01-22T02:41:20.523Z,15.89
2023-01-22T02:42:51.784Z,15.28
2023-01-22T02:44:22.992Z,16.02
2023-01-22T02:45:54.374Z,15.12
2023-01-22T02:47:25.630Z,14.12
2023-01-22T02:48:56.804Z,11.65
2023-01-22T02:50:28.001Z,9.30
2023-01-22T02:51:59.512Z,12.04
2023-01-22T02:53:30.883Z,11.86
2023-01-22T02:55:02.206Z,7.47
2023-01-22T02:56:33.379Z,7.85
2023-01-22T02:58:04.533Z,5.52
2023-01-22T02:59:35.954Z,10.87
2023-01-22T03:01:07.198Z,11.88
2023-01-22T03:02:38.492Z,12.32
2023-01-22T03:04:10.271Z,14.07
2023-01-22T03:05:41.660Z,12.75
2023-01-22T03:07:13.016Z,14.23
2023-01-22T03:08:44.736Z,14.11
2023-01-22T03:10:16.262Z,13.17
2023-01-22T03:11:47.865Z,12.44
2023-01-22T03:13:19.180Z,12.03
2023-01-22T03:14:50.487Z,12.97
2023-01-22T03:16:21.782Z,7.79
2023-01-22T03:17:53.331Z,11.58
2023-01-22T03:19:24.668Z,15.07
2023-01-22T03:20:56.016Z,11.33
2023-01-22T03:22:27.447Z,12.69
2023-01-22T03:23:58.594Z,13.77
2023-01-22T03:25:29.784Z,13.54
2023-01-22T03:27:01.043Z,12.32
2023-01-22T03:28:32.333Z,10.63
2023-01-22T03:30:03.599Z,12.75
2023-01-22T03:31:35.038Z,10.84
2023-01-22T03:33:06.383Z,12.69
2023-01-22T03:34:37.879Z,9.85
2023-01-22T03:36:09.130Z,7.95
2023-01-22T03:37:40.261Z,11.88
2023-01-22T03:39:11.473Z,11.68
2023-01-22T03:40:42.879Z,10.89
2023-01-22T03:42:14.346Z,13.92
2023-01-22T03:43:45.656Z,13.82
2023-01-22T03:45:17.009Z,13.57
2023-01-22T03:46:49.205Z,13.47
2023-01-22T03:48:20.581Z,11.39
2023-01-22T03:49:51.784Z,12.45
2023-01-22T03:51:23.267Z,14.44
2023-01-22T03:52:54.737Z,15.77
2023-01-22T03:54:26.159Z,13.90
2023-01-22T03:55:57.797Z,11.79
2023-01-22T03:57:29.337Z,12.83
2023-01-22T03:59:01.018Z,7.53
2023-01-22T04:00:32.938Z,12.92
2023-01-22T04:02:04.160Z,15.96
2023-01-22T04:03:35.633Z,17.27
2023-01-22T04:05:07.115Z,16.47
2023-01-22T04:06:38.621Z,17.02
2023-01-22T04:08:09.834Z,16.28
2023-01-22T04:09:41.260Z,15.14
2023-01-22T04:11:12.413Z,15.71
2023-01-22T04:12:43.827Z,13.78
2023-01-22T04:14:14.995Z,15.33
2023-01-22T04:15:46.397Z,15.81
2023-01-22T04:17:18.081Z,16.56
2023-01-22T04:18:49.241Z,15.92
2023-01-22T04:20:20.734Z,14.82
2023-01-22T04:21:52.123Z,14.39
2023-01-22T04:23:23.392Z,15.40
2023-01-22T04:24:55.001Z,13.57
2023-01-22T04:26:26.444Z,15.59
2023-01-22T04:27:57.816Z,16.43
2023-01-22T04:29:29.039Z,15.33
2023-01-22T04:31:00.297Z,14.29
2023-01-22T04:32:31.699Z,16.32
2023-01-22T04:34:03.152Z,13.84
2023-01-22T04:35:34.866Z,14.00
2023-01-22T04:37:06.127Z,17.22
2023-01-22T04:38:37.761Z,17.60
2023-01-22T04:40:09.000Z,18.29
2023-01-22T04:41:40.197Z,19.04
2023-01-22T04:43:11.378Z,15.38
2023-01-22T04:44:42.753Z,13.74
2023-01-22T04:46:14.163Z,15.72
2023-01-22T04:47:45.528Z,14.44
2023-01-22T04:49:16.708Z,17.11
2023-01-22T04:50:48.067Z,19.30
2023-01-22T04:52:19.637Z,13.41
2023-01-22T04:53:50.963Z,14.45
2023-01-22T04:55:22.112Z,17.77
2023-01-22T04:56:53.734Z,18.86
2023-01-22T04:58:24.919Z,17.03
2023-01-22T04:59:56.133Z,20.88
2023-01-22T05:01:27.482Z,18.38
2023-01-22T05:02:58.881Z,16.37
2023-01-22T05:04:30.058Z,15.24
2023-01-22T05:06:01.327Z,15.76
2023-01-22T05:07:32.694Z,17.66
2023-01-22T05:09:04.038Z,19.82
2023-01-22T05:10:35.219Z,19.79
2023-01-22T05:12:06.574Z,18.14
2023-01-22T05:13:38.202Z,16.01
2023-01-22T05:15:22.542Z,18.85
2023-01-22T05:16:55.245Z,17.28
2023-01-22T05:18:26.584Z,18.70
2023-01-22T05:19:57.949Z,17.65
2023-01-22T05:21:29.497Z,14.43
2023-01-22T05:23:00.802Z,12.79
2023-01-22T05:24:32.187Z,10.86
2023-01-22T05:26:03.440Z,15.47
2023-01-22T05:27:34.791Z,16.16
2023-01-22T05:29:06.113Z,17.25
2023-01-22T05:30:37.359Z,17.44
2023-01-22T05:32:08.756Z,16.79
2023-01-22T05:33:39.991Z,18.57
2023-01-22T05:35:11.127Z,14.45
2023-01-22T05:36:42.320Z,12.06
2023-01-22T05:38:13.598Z,18.13
2023-01-22T05:39:44.895Z,17.66
2023-01-22T05:41:16.181Z,19.66
2023-01-22T05:42:47.757Z,20.04
2023-01-22T05:44:19.138Z,19.45
2023-01-22T05:45:50.489Z,16.35
2023-01-22T05:47:21.743Z,16.55
2023-01-22T05:48:52.922Z,18.31
2023-01-22T05:50:24.241Z,19.73
2023-01-22T05:51:55.521Z,19.94
2023-01-22T05:53:26.858Z,20.33
2023-01-22T05:54:58.622Z,15.61
2023-01-22T05:56:29.857Z,19.93
2023-01-22T05:58:01.147Z,20.20
2023-01-22T05:59:32.451Z,21.62
2023-01-22T06:01:03.706Z,22.29
2023-01-22T06:02:35.216Z,16.47
2023-01-22T06:04:06.767Z,14.44
2023-01-22T06:05:38.376Z,18.26
2023-01-22T06:07:09.727Z,20.16
2023-01-22T06:08:41.152Z,15.77
2023-01-22T06:10:12.567Z,14.78
2023-01-22T06:11:44.037Z,13.62
2023-01-22T06:13:15.286Z,16.78
2023-01-22T06:14:46.801Z,16.97
2023-01-22T06:16:18.199Z,17.41
2023-01-22T06:17:49.364Z,17.55
2023-01-22T06:19:20.762Z,16.56
2023-01-22T06:20:51.957Z,11.47
2023-01-22T06:22:23.342Z,15.09
2023-01-22T06:23:54.925Z,16.20
2023-01-22T06:25:26.128Z,13.55
2023-01-22T06:26:57.331Z,12.67
2023-01-22T06:28:28.672Z,12.98
2023-01-22T06:30:00.010Z,11.12
2023-01-22T06:31:31.299Z,11.58
2023-01-22T06:33:02.872Z,13.97
2023-01-22T06:34:34.326Z,14.13
2023-01-22T06:36:06.590Z,14.75
2023-01-22T06:37:37.932Z,11.59
2023-01-22T06:39:09.243Z,14.13
2023-01-22T06:40:40.515Z,13.01
2023-01-22T06:42:12.026Z,14.16
2023-01-22T06:43:43.916Z,13.03
2023-01-22T06:45:15.280Z,12.71
2023-01-22T06:46:46.691Z,14.91
2023-01-22T06:48:18.272Z,12.98
2023-01-22T06:49:49.699Z,11.17
2023-01-22T06:51:21.129Z,12.14
2023-01-22T06:52:52.415Z,13.50
2023-01-22T06:54:24.334Z,9.99
2023-01-22T06:55:55.536Z,12.84
2023-01-22T06:57:26.833Z,14.87
2023-01-22T06:58:58.328Z,11.10
2023-01-22T07:00:29.511Z,10.82
2023-01-22T07:02:00.781Z,13.88
2023-01-22T07:03:32.188Z,14.84
2023-01-22T07:05:03.459Z,15.52
2023-01-22T07:06:34.797Z,15.37
2023-01-22T07:08:06.075Z,15.98
2023-01-22T07:09:37.416Z,13.97
2023-01-22T07:11:08.954Z,11.84
2023-01-22T07:12:40.286Z,15.02
2023-01-22T07:14:11.545Z,16.19
2023-01-22T07:15:43.244Z,15.19
2023-01-22T07:17:14.627Z,14.05
2023-01-22T07:18:46.126Z,15.47
2023-01-22T07:20:17.538Z,12.80
2023-01-22T07:21:49.186Z,14.46
2023-01-22T07:23:20.607Z,16.40
2023-01-22T07:24:51.898Z,16.42
2023-01-22T07:26:23.068Z,16.12
2023-01-22T07:27:54.382Z,14.70
2023-01-22T07:29:25.594Z,14.20
2023-01-22T07:30:56.902Z,15.73
2023-01-22T07:32:28.363Z,15.70
2023-01-22T07:33:59.628Z,15.92
2023-01-22T07:35:30.850Z,15.34
2023-01-22T07:37:02.305Z,15.38
2023-01-22T07:38:33.522Z,19.27
2023-01-22T07:40:04.804Z,14.95
2023-01-22T07:42:12.623Z,18.59
2023-01-22T07:43:44.092Z,17.66
2023-01-22T07:45:15.290Z,19.08
2023-01-22T07:46:46.835Z,21.42
2023-01-22T07:48:18.471Z,14.61
2023-01-22T07:49:49.945Z,18.72
2023-01-22T07:51:21.401Z,21.78
2023-01-22T07:52:53.109Z,20.94
2023-01-22T07:54:24.537Z,21.36
2023-01-22T07:55:55.886Z,15.62
2023-01-22T07:57:27.114Z,20.10
2023-01-22T07:59:00.184Z,23.20
2023-01-22T08:00:31.588Z,22.14
2023-01-22T08:02:03.720Z,15.62
2023-01-22T08:03:35.082Z,19.59
2023-01-22T08:05:06.235Z,22.87
2023-01-22T08:06:37.638Z,20.45
2023-01-22T08:08:09.055Z,21.63
2023-01-22T08:09:40.247Z,20.54
2023-01-22T08:11:11.404Z,21.86
2023-01-22T08:12:43.594Z,22.42
2023-01-22T08:14:16.450Z,21.25
2023-01-22T08:15:47.738Z,21.61
2023-01-22T08:17:19.030Z,21.80
2023-01-22T08:18:50.524Z,21.48
2023-01-22T08:20:21.896Z,22.03
2023-01-22T08:21:53.187Z,19.97
2023-01-22T08:23:24.377Z,20.70
2023-01-22T08:24:55.649Z,19.65
2023-01-22T08:26:27.036Z,20.62
2023-01-22T08:27:58.290Z,24.70
2023-01-22T08:29:29.544Z,23.50
2023-01-22T08:31:01.093Z,26.33
2023-01-22T08:32:32.526Z,22.45
2023-01-22T08:34:03.897Z,21.91
2023-01-22T08:35:35.184Z,23.69
2023-01-22T08:37:06.659Z,18.81
2023-01-22T08:38:37.964Z,20.63
2023-01-22T08:40:09.253Z,24.85
2023-01-22T08:41:40.811Z,24.37
2023-01-22T08:43:12.091Z,17.69
2023-01-22T08:44:43.452Z,19.01
2023-01-22T08:46:14.698Z,21.55
2023-01-22T08:47:46.088Z,22.02
2023-01-22T08:49:17.576Z,18.73
2023-01-22T08:50:48.908Z,21.78
2023-01-22T08:52:20.078Z,22.17
2023-01-22T08:53:51.415Z,18.91
2023-01-22T08:55:22.554Z,22.61
2023-01-22T08:56:54.046Z,22.50
2023-01-22T08:58:25.418Z,20.08
2023-01-22T09:00:01.389Z,21.22
2023-01-22T09:01:32.907Z,17.73
2023-01-22T09:03:04.669Z,20.25
2023-01-22T09:04:35.973Z,21.24
2023-01-22T09:06:07.247Z,20.32
2023-01-22T09:07:38.580Z,20.22
2023-01-22T09:09:10.247Z,17.77
2023-01-22T09:10:41.454Z,18.76
2023-01-22T09:12:12.809Z,16.34
2023-01-22T09:13:44.044Z,18.47
2023-01-22T09:15:15.246Z,13.14
2023-01-22T09:16:46.567Z,18.00
2023-01-22T09:18:29.056Z,19.25
2023-01-22T09:20:02.133Z,18.01
2023-01-22T09:21:35.341Z,17.30
2023-01-22T09:23:06.886Z,17.24
2023-01-22T09:24:38.454Z,17.90
2023-01-22T09:26:10.253Z,17.73
2023-01-22T09:27:41.699Z,14.93
2023-01-22T09:29:14.447Z,17.39
2023-01-22T09:30:46.134Z,17.58
2023-01-22T09:32:18.388Z,16.58
2023-01-22T09:33:49.754Z,15.64
2023-01-22T09:35:22.499Z,14.57
2023-01-22T09:36:54.027Z,15.97
2023-01-22T09:38:25.454Z,17.40
2023-01-22T09:39:56.950Z,17.96
2023-01-22T09:41:28.931Z,17.19
2023-01-22T09:43:00.136Z,15.90
2023-01-22T09:44:31.648Z,16.20
2023-01-22T09:46:02.966Z,16.90
2023-01-22T09:47:34.613Z,16.20
2023-01-22T09:49:05.938Z,17.41
2023-01-22T09:50:37.379Z,17.92
2023-01-22T09:52:09.138Z,17.08
2023-01-22T09:53:40.550Z,17.10
2023-01-22T09:55:11.842Z,13.82
2023-01-22T09:56:43.358Z,11.70
2023-01-22T09:58:14.509Z,14.95
2023-01-22T09:59:45.734Z,15.19
2023-01-22T10:01:17.061Z,17.66
2023-01-22T10:02:48.321Z,17.96
2023-01-22T10:04:19.623Z,16.82
2023-01-22T10:05:51.153Z,15.53
2023-01-22T10:07:22.422Z,17.23
2023-01-22T10:08:53.759Z,17.66
2023-01-22T10:10:25.005Z,16.82
2023-01-22T10:11:56.304Z,13.52
2023-01-22T10:13:27.600Z,15.02
2023-01-22T10:14:58.916Z,15.03
2023-01-22T10:16:30.252Z,15.63
2023-01-22T10:18:01.376Z,15.14
2023-01-22T10:19:32.709Z,15.85
2023-01-22T10:21:04.003Z,13.35
2023-01-22T10:22:35.391Z,12.86
2023-01-22T10:24:06.783Z,14.76
2023-01-22T10:25:38.288Z,15.13
2023-01-22T10:27:10.085Z,14.27
2023-01-22T10:28:41.386Z,14.90
2023-01-22T10:30:12.655Z,17.73
2023-01-22T10:31:44.196Z,18.18
2023-01-22T10:33:15.504Z,16.81
2023-01-22T10:34:46.990Z,17.61
2023-01-22T10:36:18.326Z,17.98
2023-01-22T10:37:49.707Z,16.34
2023-01-22T10:39:21.120Z,17.33
2023-01-22T10:40:52.874Z,18.96
2023-01-22T10:42:24.513Z,16.73
2023-01-22T10:43:56.065Z,18.17
2023-01-22T10:45:27.217Z,15.11
2023-01-22T10:46:58.439Z,16.42
2023-01-22T10:48:29.917Z,17.89
2023-01-22T10:50:04.214Z,17.67
2023-01-22T10:51:35.925Z,15.93
2023-01-22T10:53:07.139Z,15.27
2023-01-22T10:54:38.362Z,18.06
2023-01-22T10:56:12.334Z,18.19
2023-01-22T10:57:43.858Z,15.97
2023-01-22T10:59:20.864Z,15.39
2023-01-22T11:00:52.664Z,16.55
2023-01-22T11:02:23.998Z,16.79
2023-01-22T11:03:55.499Z,19.19
2023-01-22T11:05:27.054Z,17.08
2023-01-22T11:06:58.453Z,18.19
2023-01-22T11:08:29.661Z,18.09
2023-01-22T11:10:00.884Z,18.26
2023-01-22T11:11:37.234Z,16.21
2023-01-22T11:13:08.671Z,16.60
2023-01-22T11:14:40.368Z,16.08
2023-01-22T11:16:11.995Z,17.38
2023-01-22T11:17:43.331Z,17.72
2023-01-22T11:19:14.727Z,17.74
2023-01-22T11:20:46.056Z,17.89
2023-01-22T11:22:17.398Z,18.62
2023-01-22T11:23:49.032Z,17.20
2023-01-22T11:25:20.488Z,14.53
2023-01-22T11:26:53.308Z,12.12
2023-01-22T11:28:25.758Z,14.50
2023-01-22T11:29:57.402Z,16.84
2023-01-22T11:31:29.201Z,13.43
2023-01-22T11:33:01.137Z,15.04
2023-01-22T11:34:32.862Z,16.29
2023-01-22T11:36:04.236Z,16.47
2023-01-22T11:37:35.839Z,15.18
2023-01-22T11:39:07.357Z,15.48
2023-01-22T11:40:38.828Z,16.22
2023-01-22T11:42:10.296Z,16.94
2023-01-22T11:43:42.092Z,16.00
2023-01-22T11:45:18.491Z,16.50
2023-01-22T11:46:50.289Z,16.80
2023-01-22T11:48:21.587Z,14.11
2023-01-22T11:49:52.993Z,13.00
2023-01-22T11:51:29.888Z,11.53
2023-01-22T11:53:01.409Z,13.49
2023-01-22T11:54:37.870Z,12.67
2023-01-22T11:56:09.391Z,13.59
2023-01-22T11:57:40.688Z,13.02
2023-01-22T11:59:12.088Z,12.82
2023-01-22T12:00:43.512Z,11.48
2023-01-22T12:02:14.710Z,14.29
2023-01-22T12:03:45.997Z,10.70
2023-01-22T12:05:17.515Z,12.95
2023-01-22T12:06:49.290Z,16.34
2023-01-22T12:08:20.605Z,11.15
2023-01-22T12:09:57.244Z,14.57
2023-01-22T12:11:28.793Z,13.75
2023-01-22T12:13:00.185Z,12.05
2023-01-22T12:14:31.548Z,12.28
2023-01-22T12:16:05.432Z,13.86
2023-01-22T12:17:36.851Z,13.79
2023-01-22T12:19:08.104Z,10.56
2023-01-22T12:20:39.543Z,13.62
2023-01-22T12:22:11.276Z,13.20
2023-01-22T12:23:42.710Z,13.48
2023-01-22T12:25:13.951Z,15.58
2023-01-22T12:26:45.446Z,15.82
2023-01-22T12:28:16.833Z,14.99
2023-01-22T12:29:48.341Z,16.29
2023-01-22T12:31:19.879Z,15.51
2023-01-22T12:32:51.754Z,15.09
2023-01-22T12:34:23.074Z,15.10
2023-01-22T12:35:54.390Z,17.02
2023-01-22T12:37:26.186Z,16.12
2023-01-22T12:38:57.571Z,13.43
2023-01-22T12:40:28.800Z,14.83
2023-01-22T12:42:00.412Z,14.18
2023-01-22T12:43:32.029Z,15.38
2023-01-22T12:45:03.386Z,14.32
2023-01-22T12:46:40.311Z,14.79
2023-01-22T12:48:11.905Z,14.71
2023-01-22T12:49:44.341Z,17.04
2023-01-22T12:51:17.192Z,13.07
2023-01-22T12:52:48.842Z,14.74
2023-01-22T12:54:20.567Z,17.13
2023-01-22T12:55:51.870Z,12.92
2023-01-22T12:57:23.526Z,10.88
2023-01-22T12:58:55.167Z,14.75
2023-01-22T13:00:26.848Z,14.80
2023-01-22T13:01:58.704Z,16.37
2023-01-22T13:03:32.063Z,14.38
2023-01-22T13:05:03.905Z,16.29
2023-01-22T13:06:35.384Z,16.92
2023-01-22T13:08:08.039Z,14.07
2023-01-22T13:09:41.134Z,17.82
2023-01-22T13:11:12.284Z,15.48
2023-01-22T13:12:43.484Z,15.88
2023-01-22T13:14:15.634Z,17.18
2023-01-22T13:15:47.005Z,12.80
2023-01-22T13:17:18.838Z,15.11
2023-01-22T13:18:50.233Z,18.10
2023-01-22T13:20:21.435Z,17.61
2023-01-22T13:21:53.010Z,16.32
2023-01-22T13:23:24.955Z,17.29
2023-01-22T13:24:56.416Z,14.88
2023-01-22T13:26:27.635Z,15.67
2023-01-22T13:28:00.399Z,14.87
2023-01-22T13:29:41.601Z,16.25
2023-01-22T13:31:28.068Z,17.25
2023-01-22T13:32:59.308Z,18.13
2023-01-22T13:34:30.561Z,17.73
2023-01-22T13:36:01.721Z,16.07
2023-01-22T13:37:33.057Z,16.26
2023-01-22T13:39:04.286Z,17.57
2023-01-22T13:40:50.307Z,16.53
2023-01-22T13:42:22.134Z,17.61
2023-01-22T13:43:53.729Z,15.19
2023-01-22T13:45:25.035Z,18.06
2023-01-22T13:46:56.383Z,17.70
2023-01-22T13:48:27.818Z,19.68
2023-01-22T13:49:59.331Z,20.84
2023-01-22T13:51:30.535Z,20.59
2023-01-22T13:53:01.818Z,19.08
2023-01-22T13:54:33.154Z,18.49
2023-01-22T13:56:05.045Z,19.44
2023-01-22T13:57:36.348Z,18.36
2023-01-22T13:59:07.800Z,20.82
2023-01-22T14:00:39.585Z,22.66
2023-01-22T14:02:10.824Z,23.19
2023-01-22T14:03:42.305Z,23.18
2023-01-22T14:05:13.494Z,24.13
2023-01-22T14:06:44.640Z,22.39
2023-01-22T14:08:35.946Z,17.47
2023-01-22T14:10:08.315Z,18.95
2023-01-22T14:11:39.765Z,19.29
2023-01-22T14:13:11.558Z,22.98
2023-01-22T14:14:42.761Z,22.95
2023-01-22T14:16:14.164Z,18.75
2023-01-22T14:17:45.574Z,19.68
2023-01-22T14:19:16.772Z,19.70
2023-01-22T14:20:47.988Z,21.74
2023-01-22T14:22:19.157Z,23.26
2023-01-22T14:23:50.562Z,23.91
2023-01-22T14:25:21.791Z,21.40
2023-01-22T14:26:53.158Z,12.80
2023-01-22T14:28:25.213Z,19.13
2023-01-22T14:29:56.770Z,21.40
2023-01-22T14:31:38.116Z,21.59
2023-01-22T14:33:09.765Z,13.47
2023-01-22T14:34:41.342Z,16.49
2023-01-22T14:36:13.167Z,17.38
2023-01-22T14:37:49.515Z,18.88
2023-01-22T14:39:21.101Z,19.21
2023-01-22T14:40:54.261Z,16.67
2023-01-22T14:42:25.558Z,20.55
2023-01-22T14:44:06.930Z,16.48
2023-01-22T14:45:38.663Z,20.21
2023-01-22T14:47:10.083Z,21.16
2023-01-22T14:48:41.766Z,20.47
2023-01-22T14:50:13.061Z,21.23
2023-01-22T14:51:44.285Z,20.26
2023-01-22T14:53:17.678Z,18.45
2023-01-22T14:54:49.085Z,19.69
2023-01-22T14:56:20.586Z,18.38
2023-01-22T14:57:52.046Z,17.50
2023-01-22T14:59:23.755Z,19.39
2023-01-22T15:00:55.538Z,17.74
2023-01-22T15:02:26.903Z,15.47
2023-01-22T15:03:58.574Z,15.60
2023-01-22T15:05:29.791Z,18.40
2023-01-22T15:07:01.084Z,11.89
2023-01-22T15:08:32.477Z,16.10
2023-01-22T15:10:03.990Z,15.88
2023-01-22T15:11:35.669Z,14.17
2023-01-22T15:13:07.216Z,17.19
2023-01-22T15:14:38.703Z,20.69
2023-01-22T15:16:10.292Z,17.53
2023-01-22T15:17:41.612Z,17.64
2023-01-22T15:19:12.976Z,19.10
2023-01-22T15:20:44.470Z,17.90
2023-01-22T15:22:15.700Z,19.61
2023-01-22T15:23:47.301Z,20.65
2023-01-22T15:25:18.608Z,18.62
2023-01-22T15:26:49.819Z,18.00
2023-01-22T15:28:21.116Z,15.37
2023-01-22T15:29:52.510Z,19.61
2023-01-22T15:31:23.797Z,22.08
2023-01-22T15:32:55.464Z,21.19
2023-01-22T15:34:27.316Z,22.99
2023-01-22T15:35:58.813Z,23.21
2023-01-22T15:37:30.499Z,22.75
2023-01-22T15:39:02.219Z,21.55
2023-01-22T15:40:43.496Z,22.66
2023-01-22T15:42:14.843Z,19.86
2023-01-22T15:43:46.313Z,20.46
2023-01-22T15:45:17.904Z,21.84
2023-01-22T15:46:49.297Z,22.77
2023-01-22T15:48:20.711Z,21.34
2023-01-22T15:49:57.203Z,18.51
2023-01-22T15:51:28.621Z,20.29
2023-01-22T15:52:59.854Z,21.80
2023-01-22T15:54:32.114Z,22.33
2023-01-22T15:56:03.587Z,23.41
2023-01-22T15:57:34.935Z,23.89
2023-01-22T15:59:06.099Z,18.86
2023-01-22T16:00:37.531Z,20.80
2023-01-22T16:02:08.997Z,24.42
2023-01-22T16:03:40.652Z,23.60
2023-01-22T16:05:12.190Z,22.47
2023-01-22T16:06:43.645Z,24.32
2023-01-22T16:08:14.907Z,23.40
2023-01-22T16:09:46.145Z,22.26
2023-01-22T16:11:17.627Z,22.11
2023-01-22T16:12:54.909Z,23.25
2023-01-22T16:14:26.101Z,20.81
2023-01-22T16:15:57.512Z,22.25
2023-01-22T16:17:28.914Z,20.07
2023-01-22T16:19:00.520Z,20.72
2023-01-22T16:21:04.988Z,20.43
2023-01-22T16:24:51.421Z,21.51
2023-01-22T16:26:22.825Z,23.47
2023-01-22T16:27:54.432Z,23.44
2023-01-22T16:29:30.716Z,23.13
2023-01-22T16:31:02.310Z,22.57
2023-01-22T16:32:33.671Z,22.71
2023-01-22T16:34:04.910Z,20.65
2023-01-22T16:35:36.278Z,19.40
2023-01-22T16:37:07.813Z,19.73
2023-01-22T16:38:39.307Z,18.77
2023-01-22T16:40:10.570Z,20.26
2023-01-22T16:41:41.949Z,19.72
2023-01-22T16:43:13.100Z,19.86
2023-01-22T16:44:44.434Z,18.67
2023-01-22T16:46:15.700Z,22.37
2023-01-22T16:47:47.111Z,20.86
2023-01-22T16:49:28.511Z,16.95
2023-01-22T16:50:59.825Z,17.95
2023-01-22T16:52:31.180Z,20.95
2023-01-22T16:54:02.394Z,18.75
2023-01-22T16:55:33.686Z,19.78
2023-01-22T16:57:05.253Z,19.23
2023-01-22T16:58:36.704Z,21.96
2023-01-22T17:00:08.100Z,20.53
2023-01-22T17:01:41.260Z,17.25
2023-01-22T17:03:13.038Z,19.03
2023-01-22T17:04:44.560Z,21.83
2023-01-22T17:06:15.808Z,22.48
2023-01-22T17:07:47.662Z,19.54
2023-01-22T17:09:19.258Z,22.62
2023-01-22T17:10:50.692Z,21.63
2023-01-22T17:13:01.257Z,21.91
2023-01-22T17:14:32.798Z,23.46
2023-01-22T17:16:18.976Z,24.18
2023-01-22T17:18:16.553Z,22.05
2023-01-22T17:19:47.951Z,19.20
2023-01-22T17:21:29.116Z,20.16
2023-01-22T17:23:00.365Z,23.55
2023-01-22T17:24:48.029Z,23.59
2023-01-22T17:26:35.178Z,20.41
2023-01-22T17:28:24.551Z,23.81
2023-01-22T17:29:55.885Z,21.86
2023-01-22T17:31:27.802Z,18.98
2023-01-22T17:32:59.763Z,20.51
2023-01-22T17:34:40.894Z,19.18
2023-01-22T17:36:22.640Z,21.47
2023-01-22T17:38:14.049Z,22.62
2023-01-22T17:39:55.169Z,22.70
2023-01-22T17:41:26.386Z,20.22
2023-01-22T17:42:57.677Z,21.56
2023-01-22T17:44:28.952Z,19.07
2023-01-22T17:46:10.919Z,24.20
2023-01-22T17:47:42.150Z,24.18
2023-01-22T17:49:23.529Z,22.36
2023-01-22T17:51:25.015Z,19.32
2023-01-22T17:52:57.001Z,20.24
2023-01-22T17:54:38.406Z,20.72
2023-01-22T17:56:09.679Z,21.14
2023-01-22T17:57:41.529Z,19.61
2023-01-22T17:59:13.362Z,20.89
2023-01-22T18:00:44.647Z,21.39
2023-01-22T18:02:15.941Z,20.71
2023-01-22T18:03:47.404Z,20.81
2023-01-22T18:05:23.648Z,20.09
2023-01-22T18:06:59.940Z,20.68
2023-01-22T18:08:31.200Z,19.81
2023-01-22T18:10:02.392Z,19.73
2023-01-22T18:11:33.813Z,20.29
2023-01-22T18:13:05.547Z,19.77
2023-01-22T18:14:37.223Z,22.92
2023-01-22T18:16:09.370Z,23.40
2023-01-22T18:17:40.926Z,21.91
2023-01-22T18:19:12.308Z,21.38
2023-01-22T18:20:43.533Z,21.90
2023-01-22T18:22:14.856Z,21.65
2023-01-22T18:23:46.128Z,20.66
2023-01-22T18:25:17.890Z,19.08
2023-01-22T18:26:49.415Z,19.57
2023-01-22T18:28:21.304Z,21.54
2023-01-22T18:29:52.538Z,22.36
2023-01-22T18:31:23.935Z,21.40
2023-01-22T18:32:55.227Z,22.07
2023-01-22T18:34:26.401Z,21.99
2023-01-22T18:35:57.624Z,21.68
2023-01-22T18:37:28.951Z,21.88
2023-01-22T18:39:00.335Z,21.68
2023-01-22T18:40:31.800Z,22.37
2023-01-22T18:42:03.188Z,21.59
2023-01-22T18:43:34.392Z,22.05
2023-01-22T18:45:05.560Z,20.88
2023-01-22T18:46:37.108Z,21.24
2023-01-22T18:48:08.777Z,22.24
2023-01-22T18:49:40.327Z,19.95
2023-01-22T18:51:11.637Z,19.68
2023-01-22T18:52:43.049Z,19.36
2023-01-22T18:54:14.532Z,21.57
2023-01-22T18:55:45.808Z,21.29
2023-01-22T18:57:17.104Z,21.05
2023-01-22T18:58:48.385Z,20.29
2023-01-22T19:00:19.893Z,22.09
2023-01-22T19:01:51.576Z,20.86
2023-01-22T19:03:23.092Z,21.07
2023-01-22T19:04:54.381Z,19.73
2023-01-22T19:06:25.624Z,19.60
2023-01-22T19:07:57.238Z,19.10
2023-01-22T19:11:57.192Z,17.40
2023-01-22T19:13:28.632Z,19.87
2023-01-22T19:14:59.836Z,19.64
2023-01-22T19:16:31.157Z,18.88
2023-01-22T19:18:02.832Z,20.03
2023-01-22T19:19:34.252Z,18.95
2023-01-22T19:21:05.429Z,19.50
2023-01-22T19:22:36.645Z,18.49
2023-01-22T19:24:08.033Z,19.36
2023-01-22T19:25:39.282Z,19.24
2023-01-22T19:27:15.777Z,19.87
2023-01-22T19:29:13.764Z,18.70
2023-01-22T19:30:45.511Z,18.01
2023-01-22T19:32:16.870Z,18.09
2023-01-22T19:34:19.456Z,19.00
2023-01-22T19:35:51.547Z,17.56
2023-01-22T19:37:23.295Z,18.43
2023-01-22T19:39:01.668Z,18.30
2023-01-22T19:40:41.038Z,16.60
2023-01-22T19:42:12.154Z,15.93
2023-01-22T19:43:43.391Z,19.21
2023-01-22T19:45:14.784Z,18.15
2023-01-22T19:46:46.593Z,16.41
2023-01-22T19:48:17.987Z,17.89
2023-01-22T19:49:49.267Z,17.46
2023-01-22T19:51:20.780Z,19.41
2023-01-22T19:52:52.433Z,18.22
2023-01-22T19:54:23.845Z,18.88